createdAt,value
2018-10-05T00:00:53.395Z,10.20
2018-10-05T00:03:19.942Z,10.40
2018-10-05T00:05:47.268Z,10.40
2018-10-05T00:08:13.944Z,10.30
2018-10-05T00:10:41.194Z,10.30
2018-10-05T00:13:08.421Z,10.30
2018-10-05T00:15:35.959Z,10.30
2018-10-05T00:18:03.209Z,10.20
2018-10-05T00:20:30.938Z,10.30
2018-10-05T00:22:57.443Z,10.40
2018-10-05T00:25:24.580Z,10.20
2018-10-05T00:27:51.088Z,10.10
2018-10-05T00:30:18.196Z,10.30
2018-10-05T00:32:44.826Z,10.30
2018-10-05T00:35:11.386Z,10.20
2018-10-05T00:37:37.965Z,10.30
2018-10-05T00:40:04.525Z,10.30
2018-10-05T00:42:31.198Z,10.30
2018-10-05T00:44:57.808Z,9.90
2018-10-05T00:47:24.451Z,9.90
2018-10-05T00:49:51.011Z,10.00
2018-10-05T00:52:17.941Z,10.10
2018-10-05T00:54:44.681Z,10.10
2018-10-05T00:57:11.183Z,10.20
2018-10-05T00:59:37.755Z,10.10
2018-10-05T01:02:04.445Z,10.00
2018-10-05T01:04:31.197Z,10.10
2018-10-05T01:06:57.785Z,10.10
2018-10-05T01:09:24.496Z,10.00
2018-10-05T01:11:51.471Z,9.70
2018-10-05T01:14:18.033Z,9.50
2018-10-05T01:16:44.744Z,9.70
2018-10-05T01:19:11.350Z,9.70
2018-10-05T01:21:37.953Z,9.80
2018-10-05T01:24:04.550Z,9.80
2018-10-05T01:26:31.045Z,9.70
2018-10-05T01:28:57.586Z,9.60
2018-10-05T01:31:28.159Z,9.40
2018-10-05T01:33:54.660Z,9.70
2018-10-05T01:36:22.122Z,9.80
2018-10-05T01:41:21.903Z,9.80
2018-10-05T01:43:48.798Z,9.80
2018-10-05T01:46:16.346Z,9.80
2018-10-05T01:48:43.900Z,9.80
2018-10-05T01:51:11.213Z,9.60
2018-10-05T01:53:38.212Z,9.40
2018-10-05T01:56:05.460Z,9.40
2018-10-05T01:58:33.053Z,9.40
2018-10-05T02:01:00.353Z,9.50
2018-10-05T02:03:27.032Z,9.60
2018-10-05T02:05:53.538Z,9.50
2018-10-05T02:08:20.074Z,9.60
2018-10-05T02:10:46.680Z,9.60
2018-10-05T02:13:13.165Z,9.50
2018-10-05T02:15:39.685Z,9.30
2018-10-05T02:18:06.927Z,9.30
2018-10-05T02:20:33.702Z,9.20
2018-10-05T02:23:00.770Z,9.20
2018-10-05T02:25:28.105Z,9.30
2018-10-05T02:27:54.634Z,9.30
2018-10-05T02:30:22.417Z,9.20
2018-10-05T02:32:49.128Z,9.30
2018-10-05T02:35:16.003Z,9.20
2018-10-05T02:37:43.192Z,9.00
2018-10-05T02:40:09.988Z,9.10
2018-10-05T02:42:36.567Z,9.00
2018-10-05T02:45:03.077Z,9.10
2018-10-05T02:52:33.108Z,9.00
2018-10-05T02:54:59.617Z,9.30
2018-10-05T02:57:26.774Z,9.10
2018-10-05T02:59:54.821Z,9.10
2018-10-05T03:02:21.566Z,9.20
2018-10-05T03:04:49.193Z,9.20
2018-10-05T03:07:16.306Z,9.30
2018-10-05T03:09:42.916Z,9.40
2018-10-05T03:12:10.321Z,9.10
2018-10-05T03:14:37.453Z,8.90
2018-10-05T03:17:04.871Z,9.00
2018-10-05T03:19:32.450Z,8.90
2018-10-05T03:22:00.119Z,8.90
2018-10-05T03:24:26.724Z,8.90
2018-10-05T03:26:53.246Z,9.00
2018-10-05T03:29:19.825Z,9.00
2018-10-05T03:31:46.315Z,9.00
2018-10-05T03:34:12.824Z,9.10
2018-10-05T03:39:11.158Z,9.00
2018-10-05T03:41:38.254Z,8.90
2018-10-05T03:44:04.814Z,8.90
2018-10-05T03:46:31.513Z,8.80
2018-10-05T03:48:58.002Z,8.90
2018-10-05T03:51:24.587Z,8.80
2018-10-05T03:53:51.147Z,8.80
2018-10-05T03:56:17.629Z,8.60
2018-10-05T03:58:44.191Z,8.60
2018-10-05T04:01:10.738Z,8.50
2018-10-05T04:03:37.315Z,8.50
2018-10-05T04:06:03.812Z,8.50
2018-10-05T04:08:30.344Z,8.70
2018-10-05T04:10:56.842Z,8.60
2018-10-05T04:13:23.317Z,8.70
2018-10-05T04:15:49.833Z,8.70
2018-10-05T04:18:16.353Z,8.60
2018-10-05T04:20:42.861Z,8.50
2018-10-05T04:23:09.488Z,8.50
2018-10-05T04:25:35.986Z,8.70
2018-10-05T04:28:02.596Z,8.80
2018-10-05T04:30:29.879Z,8.60
2018-10-05T04:32:56.694Z,8.60
2018-10-05T04:35:23.243Z,8.60
2018-10-05T04:37:49.830Z,8.40
2018-10-05T04:40:16.519Z,8.30
2018-10-05T04:42:43.718Z,8.50
2018-10-05T04:45:10.351Z,8.50
2018-10-05T04:47:37.672Z,8.60
2018-10-05T04:50:04.161Z,8.60
2018-10-05T04:52:30.730Z,8.30
2018-10-05T04:54:58.581Z,8.60
2018-10-05T04:57:25.122Z,8.70
2018-10-05T04:59:51.679Z,8.70
2018-10-05T05:02:18.165Z,8.80
2018-10-05T05:04:45.148Z,8.40
2018-10-05T05:07:12.268Z,8.60
2018-10-05T05:09:38.815Z,8.80
2018-10-05T05:12:05.527Z,8.70
2018-10-05T05:14:32.231Z,8.70
2018-10-05T05:16:58.845Z,8.80
2018-10-05T05:19:25.593Z,8.60
2018-10-05T05:21:52.246Z,8.60
2018-10-05T05:24:18.723Z,8.70
2018-10-05T05:26:45.528Z,8.70
2018-10-05T05:29:12.042Z,8.70
2018-10-05T05:31:38.839Z,8.60
2018-10-05T05:34:06.099Z,8.80
2018-10-05T05:36:32.760Z,8.80
2018-10-05T05:38:59.272Z,8.80
2018-10-05T05:41:25.742Z,8.70
2018-10-05T05:43:52.339Z,8.60
2018-10-05T05:51:23.753Z,9.00
2018-10-05T05:53:50.266Z,8.80
2018-10-05T05:56:16.927Z,9.00
2018-10-05T05:58:43.512Z,8.90
2018-10-05T06:01:10.163Z,9.20
2018-10-05T06:03:36.801Z,9.20
2018-10-05T06:06:05.695Z,9.40
2018-10-05T06:08:32.250Z,9.50
2018-10-05T06:10:58.835Z,9.60
2018-10-05T06:13:25.312Z,9.80
2018-10-05T06:15:51.829Z,10.00
2018-10-05T06:18:18.503Z,10.00
2018-10-05T06:23:16.775Z,10.30
2018-10-05T06:25:43.241Z,10.30
2018-10-05T06:28:09.732Z,10.40
2018-10-05T06:30:36.321Z,10.50
2018-10-05T06:33:04.027Z,10.50
2018-10-05T06:35:30.594Z,10.50
2018-10-05T06:37:57.159Z,10.40
2018-10-05T06:40:23.858Z,10.70
2018-10-05T06:42:50.350Z,10.90
2018-10-05T06:45:16.928Z,10.90
2018-10-05T06:47:43.402Z,11.10
2018-10-05T06:50:10.056Z,11.30
2018-10-05T06:52:36.551Z,11.50
2018-10-05T06:55:03.028Z,11.20
2018-10-05T06:57:29.519Z,11.50
2018-10-05T06:59:56.001Z,11.60
2018-10-05T07:02:22.468Z,11.70
2018-10-05T07:04:49.760Z,11.60
2018-10-05T07:07:16.257Z,11.90
2018-10-05T07:09:42.726Z,11.90
2018-10-05T07:12:09.426Z,11.70
2018-10-05T07:14:35.951Z,11.80
2018-10-05T07:17:02.504Z,12.00
2018-10-05T07:19:29.180Z,12.00
2018-10-05T07:21:55.688Z,12.10
2018-10-05T07:24:22.208Z,12.10
2018-10-05T07:26:48.653Z,12.20
2018-10-05T07:29:15.160Z,12.00
2018-10-05T07:31:41.638Z,12.00
2018-10-05T07:34:08.114Z,12.40
2018-10-05T07:36:34.899Z,12.20
2018-10-05T07:39:01.551Z,12.40
2018-10-05T07:41:28.043Z,12.50
2018-10-05T07:43:54.551Z,12.50
2018-10-05T07:46:21.053Z,12.60
2018-10-05T07:48:47.506Z,12.90
2018-10-05T07:51:14.045Z,12.90
2018-10-05T07:53:40.552Z,13.30
2018-10-05T07:56:07.055Z,13.40
2018-10-05T07:58:33.598Z,13.50
2018-10-05T08:01:00.098Z,13.50
2018-10-05T08:03:26.570Z,13.50
2018-10-05T08:08:28.369Z,13.60
2018-10-05T08:10:54.819Z,14.00
2018-10-05T08:13:21.421Z,14.20
2018-10-05T08:15:47.918Z,14.10
2018-10-05T08:18:14.374Z,13.90
2018-10-05T08:20:40.995Z,13.80
2018-10-05T08:23:07.490Z,13.80
2018-10-05T08:25:34.064Z,13.80
2018-10-05T08:28:00.585Z,14.10
2018-10-05T08:30:30.389Z,14.40
2018-10-05T08:32:56.842Z,14.40
2018-10-05T08:35:23.393Z,14.50
2018-10-05T08:37:50.922Z,14.80
2018-10-05T08:40:17.467Z,14.70
2018-10-05T08:42:44.068Z,14.60
2018-10-05T08:47:42.729Z,15.00
2018-10-05T08:50:09.191Z,15.00
2018-10-05T08:52:35.744Z,14.90
2018-10-05T08:55:02.406Z,15.50
2018-10-05T08:57:29.179Z,15.70
2018-10-05T08:59:55.679Z,16.00
2018-10-05T09:02:22.214Z,16.10
2018-10-05T09:04:48.682Z,16.60
2018-10-05T09:07:15.136Z,16.70
2018-10-05T09:09:41.665Z,16.60
2018-10-05T09:12:08.167Z,16.90
2018-10-05T09:14:34.672Z,17.30
2018-10-05T09:17:01.164Z,16.90
2018-10-05T09:19:27.619Z,16.40
2018-10-05T09:21:54.074Z,16.70
2018-10-05T09:24:20.596Z,16.90
2018-10-05T09:26:47.038Z,17.30
2018-10-05T09:29:13.501Z,17.40
2018-10-05T09:31:40.018Z,17.50
2018-10-05T09:34:06.506Z,17.50
2018-10-05T09:36:33.037Z,17.80
2018-10-05T09:38:59.596Z,18.20
2018-10-05T09:41:26.074Z,17.90
2018-10-05T09:43:52.590Z,17.50
2018-10-05T09:46:19.186Z,17.80
2018-10-05T09:48:45.711Z,18.30
2018-10-05T09:51:12.240Z,18.20
2018-10-05T09:53:38.737Z,18.40
2018-10-05T09:56:05.249Z,18.40
2018-10-05T09:58:31.847Z,18.40
2018-10-05T10:00:58.395Z,18.60
2018-10-05T10:03:25.001Z,18.80
2018-10-05T10:05:51.657Z,18.80
2018-10-05T10:08:18.212Z,18.80
2018-10-05T10:10:44.932Z,18.60
2018-10-05T10:13:11.505Z,18.40
2018-10-05T10:15:38.011Z,18.80
2018-10-05T10:18:04.563Z,19.10
2018-10-05T10:20:31.008Z,19.30
2018-10-05T10:22:57.535Z,18.90
2018-10-05T10:25:24.032Z,18.40
2018-10-05T10:27:50.523Z,18.80
2018-10-05T10:30:20.387Z,19.10
2018-10-05T10:32:46.988Z,19.00
2018-10-05T10:35:14.382Z,19.30
2018-10-05T10:40:12.649Z,19.00
2018-10-05T10:42:39.298Z,19.00
2018-10-05T10:45:05.913Z,19.30
2018-10-05T10:47:32.416Z,19.70
2018-10-05T10:49:58.914Z,19.80
2018-10-05T10:52:25.386Z,19.70
2018-10-05T10:54:51.997Z,19.90
2018-10-05T10:57:18.637Z,19.60
2018-10-05T10:59:45.209Z,19.80
2018-10-05T11:02:11.803Z,19.50
2018-10-05T11:04:38.406Z,20.20
2018-10-05T11:07:04.973Z,20.30
2018-10-05T11:09:31.539Z,20.20
2018-10-05T11:11:58.046Z,20.10
2018-10-05T11:14:24.546Z,20.30
2018-10-05T11:16:51.130Z,20.00
2018-10-05T11:19:17.563Z,20.20
2018-10-05T11:21:44.096Z,20.20
2018-10-05T11:24:10.641Z,20.50
2018-10-05T11:26:37.093Z,20.70
2018-10-05T11:29:03.655Z,20.60
2018-10-05T11:34:02.223Z,20.50
2018-10-05T11:36:28.669Z,20.50
2018-10-05T11:38:55.164Z,21.00
2018-10-05T11:41:21.741Z,21.50
2018-10-05T11:43:48.260Z,21.50
2018-10-05T11:46:14.774Z,20.50
2018-10-05T11:48:41.544Z,20.60
2018-10-05T11:51:08.069Z,20.60
2018-10-05T11:53:34.578Z,21.30
2018-10-05T11:56:01.077Z,21.20
2018-10-05T11:58:28.068Z,21.40
2018-10-05T12:00:54.652Z,21.60
2018-10-05T12:05:53.373Z,21.60
2018-10-05T12:08:20.426Z,21.30
2018-10-05T12:10:46.877Z,21.60
2018-10-05T12:13:13.418Z,21.60
2018-10-05T12:15:40.079Z,21.60
2018-10-05T12:18:06.598Z,21.20
2018-10-05T12:20:33.055Z,21.10
2018-10-05T12:22:59.628Z,21.40
2018-10-05T12:25:26.114Z,21.60
2018-10-05T12:27:52.612Z,21.60
2018-10-05T12:30:19.208Z,21.50
2018-10-05T12:32:45.714Z,21.10
2018-10-05T12:35:12.307Z,21.50
2018-10-05T12:37:38.819Z,21.60
2018-10-05T12:40:05.532Z,21.60
2018-10-05T12:42:32.081Z,21.10
2018-10-05T12:44:58.566Z,20.90
2018-10-05T12:47:25.280Z,20.70
2018-10-05T12:49:51.831Z,21.00
2018-10-05T12:52:18.314Z,21.20
2018-10-05T12:54:45.005Z,21.80
2018-10-05T12:57:12.468Z,21.50
2018-10-05T12:59:39.032Z,22.00
2018-10-05T13:02:05.558Z,22.10
2018-10-05T13:04:32.096Z,22.30
2018-10-05T13:06:58.563Z,22.00
2018-10-05T13:09:25.081Z,21.80
2018-10-05T13:11:51.755Z,21.50
2018-10-05T13:14:18.267Z,21.70
2018-10-05T13:16:44.738Z,21.60
2018-10-05T13:19:11.261Z,21.60
2018-10-05T13:21:37.717Z,21.90
2018-10-05T13:24:04.239Z,22.10
2018-10-05T13:26:30.784Z,21.90
2018-10-05T13:28:57.258Z,21.90
2018-10-05T13:31:23.762Z,22.20
2018-10-05T13:33:50.489Z,22.50
2018-10-05T13:36:17.201Z,22.10
2018-10-05T13:38:43.919Z,22.10
2018-10-05T13:41:10.531Z,22.00
2018-10-05T13:43:37.194Z,21.70
2018-10-05T13:46:03.709Z,21.00
2018-10-05T13:51:02.905Z,22.10
2018-10-05T13:53:30.228Z,21.80
2018-10-05T13:55:57.639Z,22.00
2018-10-05T13:58:24.111Z,22.10
2018-10-05T14:00:50.613Z,21.30
2018-10-05T14:03:18.118Z,21.00
2018-10-05T14:05:44.744Z,21.30
2018-10-05T14:08:11.303Z,21.40
2018-10-05T14:10:37.993Z,21.40
2018-10-05T14:13:05.559Z,21.50
2018-10-05T14:15:32.132Z,21.90
2018-10-05T14:17:58.817Z,21.50
2018-10-05T14:20:25.464Z,21.40
2018-10-05T14:22:52.339Z,21.50
2018-10-05T14:25:18.914Z,21.80
2018-10-05T14:27:45.746Z,21.50
2018-10-05T14:30:12.313Z,21.30
2018-10-05T14:32:38.838Z,21.30
2018-10-05T14:35:05.812Z,21.20
2018-10-05T14:37:32.370Z,21.40
2018-10-05T14:39:58.837Z,21.30
2018-10-05T14:42:25.372Z,21.30
2018-10-05T14:44:51.947Z,21.30
2018-10-05T14:47:18.435Z,21.50
2018-10-05T14:49:44.916Z,21.70
2018-10-05T14:52:11.424Z,21.10
2018-10-05T14:54:37.932Z,21.10
2018-10-05T14:57:04.610Z,21.50
2018-10-05T14:59:31.233Z,20.90
2018-10-05T15:01:57.755Z,20.90
2018-10-05T15:04:24.259Z,21.00
2018-10-05T15:06:50.874Z,21.00
2018-10-05T15:09:17.444Z,20.90
2018-10-05T15:11:43.932Z,20.90
2018-10-05T15:14:11.152Z,21.10
2018-10-05T15:16:37.642Z,20.80
2018-10-05T15:19:04.234Z,20.70
2018-10-05T15:21:30.798Z,20.40
2018-10-05T15:23:57.372Z,20.00
2018-10-05T15:26:23.884Z,19.90
2018-10-05T15:28:50.349Z,19.70
2018-10-05T15:31:16.841Z,19.60
2018-10-05T15:33:43.345Z,19.40
2018-10-05T15:36:09.836Z,19.40
2018-10-05T15:38:36.449Z,19.50
2018-10-05T15:41:02.982Z,19.70
2018-10-05T15:43:29.622Z,19.60
2018-10-05T15:45:56.145Z,19.50
2018-10-05T15:48:22.713Z,19.50
2018-10-05T15:50:49.225Z,19.30
2018-10-05T15:53:16.427Z,19.30
2018-10-05T15:55:42.928Z,19.30
2018-10-05T15:58:09.468Z,18.90
2018-10-05T16:00:35.920Z,18.90
2018-10-05T16:03:02.619Z,18.90
2018-10-05T16:05:29.199Z,18.90
2018-10-05T16:07:55.876Z,19.00
2018-10-05T16:10:22.438Z,18.90
2018-10-05T16:12:48.943Z,19.00
2018-10-05T16:15:15.634Z,19.00
2018-10-05T16:17:42.114Z,18.70
2018-10-05T16:20:09.007Z,18.60
2018-10-05T16:22:35.602Z,18.60
2018-10-05T16:25:03.127Z,18.70
2018-10-05T16:27:29.626Z,18.60
2018-10-05T16:29:56.192Z,18.50
2018-10-05T16:34:56.080Z,18.30
2018-10-05T16:37:23.716Z,18.10
2018-10-05T16:39:50.451Z,18.00
2018-10-05T16:42:16.949Z,17.80
2018-10-05T16:44:43.494Z,17.60
2018-10-05T16:47:10.022Z,17.40
2018-10-05T16:49:36.569Z,17.30
2018-10-05T16:52:03.064Z,17.00
2018-10-05T16:54:29.672Z,17.00
2018-10-05T16:56:56.183Z,17.00
2018-10-05T16:59:23.790Z,16.80
2018-10-05T17:01:50.314Z,16.80
2018-10-05T17:04:16.919Z,16.70
2018-10-05T17:06:43.491Z,16.30
2018-10-05T17:09:10.074Z,16.20
2018-10-05T17:14:08.859Z,15.90
2018-10-05T17:16:35.371Z,15.90
2018-10-05T17:19:01.982Z,16.00
2018-10-05T17:21:28.658Z,16.00
2018-10-05T17:23:55.183Z,16.10
2018-10-05T17:26:21.720Z,16.00
2018-10-05T17:28:48.240Z,15.90
2018-10-05T17:31:14.737Z,16.00
2018-10-05T17:33:41.327Z,15.70
2018-10-05T17:36:07.864Z,15.80
2018-10-05T17:38:34.444Z,15.80
2018-10-05T17:41:01.869Z,15.70
2018-10-05T17:43:28.416Z,15.30
2018-10-05T17:45:54.915Z,15.30
2018-10-05T17:48:21.467Z,15.40
2018-10-05T17:55:51.870Z,15.00
2018-10-05T17:58:18.453Z,15.00
2018-10-05T18:00:45.112Z,15.00
2018-10-05T18:03:11.724Z,15.00
2018-10-05T18:05:38.196Z,14.90
2018-10-05T18:08:04.844Z,15.00
2018-10-05T18:10:31.323Z,15.00
2018-10-05T18:12:57.801Z,14.90
2018-10-05T18:15:24.344Z,14.80
2018-10-05T18:17:51.088Z,14.70
2018-10-05T18:20:17.562Z,14.60
2018-10-05T18:22:44.219Z,14.50
2018-10-05T18:25:11.814Z,14.40
2018-10-05T18:27:38.373Z,14.40
2018-10-05T18:30:04.950Z,14.40
2018-10-05T18:32:31.417Z,14.00
2018-10-05T18:34:57.910Z,14.00
2018-10-05T18:37:24.397Z,14.20
2018-10-05T18:39:51.050Z,14.10
2018-10-05T18:42:17.553Z,14.10
2018-10-05T18:44:44.552Z,14.00
2018-10-05T18:47:11.072Z,14.00
2018-10-05T18:49:37.545Z,13.80
2018-10-05T18:52:04.927Z,13.90
2018-10-05T18:54:31.447Z,13.80
2018-10-05T18:56:57.953Z,13.70
2018-10-05T18:59:24.893Z,13.60
2018-10-05T19:01:51.585Z,13.60
2018-10-05T19:04:18.071Z,13.40
2018-10-05T19:06:44.673Z,13.40
2018-10-05T19:09:11.529Z,13.50
2018-10-05T19:11:37.998Z,13.50
2018-10-05T19:14:05.162Z,13.40
2018-10-05T19:16:32.226Z,13.50
2018-10-05T19:18:58.701Z,13.40
2018-10-05T19:21:25.223Z,13.50
2018-10-05T19:23:51.884Z,13.30
2018-10-05T19:26:18.652Z,13.30
2018-10-05T19:28:45.225Z,12.80
2018-10-05T19:31:11.762Z,12.70
2018-10-05T19:33:38.264Z,12.70
2018-10-05T19:36:05.382Z,12.70
2018-10-05T19:38:32.082Z,12.50
2018-10-05T19:40:58.600Z,12.60
2018-10-05T19:43:25.156Z,12.50
2018-10-05T19:45:52.145Z,12.50
2018-10-05T19:48:18.746Z,12.60
2018-10-05T19:50:45.286Z,12.30
2018-10-05T19:53:11.986Z,12.20
2018-10-05T19:55:38.512Z,12.10
2018-10-05T19:58:05.394Z,12.10
2018-10-05T20:00:32.011Z,12.40
2018-10-05T20:02:58.702Z,12.10
2018-10-05T20:05:25.155Z,12.30
2018-10-05T20:07:52.156Z,12.50
2018-10-05T20:10:18.624Z,12.60
2018-10-05T20:12:45.123Z,12.50
2018-10-05T20:15:11.680Z,12.40
2018-10-05T20:17:38.191Z,12.20
2018-10-05T20:20:05.676Z,12.30
2018-10-05T20:22:32.544Z,12.30
2018-10-05T20:24:59.132Z,12.30
2018-10-05T20:27:25.688Z,12.30
2018-10-05T20:29:52.215Z,11.90
2018-10-05T20:32:18.658Z,12.10
2018-10-05T20:34:45.154Z,11.90
2018-10-05T20:37:11.784Z,11.80
2018-10-05T20:39:38.171Z,11.90
2018-10-05T20:42:05.713Z,11.40
2018-10-05T20:47:05.129Z,11.50
2018-10-05T20:49:31.642Z,11.60
2018-10-05T20:51:58.135Z,11.60
2018-10-05T20:54:24.749Z,11.70
2018-10-05T20:56:51.238Z,11.80
2018-10-05T20:59:17.747Z,11.70
2018-10-05T21:01:44.313Z,11.70
2018-10-05T21:04:10.846Z,11.70
2018-10-05T21:06:37.572Z,11.60
2018-10-05T21:09:04.251Z,11.70
2018-10-05T21:11:30.724Z,11.40
2018-10-05T21:13:57.327Z,11.20
2018-10-05T21:16:23.843Z,11.10
2018-10-05T21:18:50.356Z,11.40
2018-10-05T21:21:16.920Z,11.40
2018-10-05T21:23:43.451Z,11.30
2018-10-05T21:26:09.928Z,11.10
2018-10-05T21:28:36.816Z,11.10
2018-10-05T21:31:03.329Z,11.20
2018-10-05T21:33:29.795Z,11.20
2018-10-05T21:35:56.298Z,11.10
2018-10-05T21:38:22.853Z,11.20
2018-10-05T21:40:49.372Z,11.40
2018-10-05T21:43:15.839Z,11.20
2018-10-05T21:45:42.532Z,11.10
2018-10-05T21:48:09.024Z,11.10
2018-10-05T21:50:35.593Z,11.20
2018-10-05T21:53:02.817Z,11.00
2018-10-05T21:55:29.308Z,11.00
2018-10-05T21:57:55.808Z,10.80
2018-10-05T22:00:22.292Z,10.80
2018-10-05T22:02:48.774Z,11.00
2018-10-05T22:05:15.505Z,10.80
2018-10-05T22:07:42.022Z,10.40
2018-10-05T22:10:08.509Z,10.60
2018-10-05T22:12:35.042Z,10.80
2018-10-05T22:15:01.594Z,10.70
2018-10-05T22:17:28.065Z,10.60
2018-10-05T22:19:54.535Z,10.80
2018-10-05T22:22:21.217Z,10.90
2018-10-05T22:24:47.678Z,10.80
2018-10-05T22:27:14.147Z,10.70
2018-10-05T22:29:40.665Z,10.90
2018-10-05T22:32:07.141Z,10.80
2018-10-05T22:34:33.641Z,10.90
2018-10-05T22:37:00.223Z,11.10
2018-10-05T22:39:26.696Z,11.20
2018-10-05T22:41:53.206Z,11.00
2018-10-05T22:44:20.906Z,11.10
2018-10-05T22:46:47.595Z,10.50
2018-10-05T22:49:14.071Z,10.50
2018-10-05T22:51:40.591Z,10.70
2018-10-05T22:54:07.106Z,10.80
2018-10-05T22:56:33.589Z,10.70
2018-10-05T22:59:00.220Z,10.80
2018-10-05T23:01:26.717Z,10.50
2018-10-05T23:03:53.210Z,10.50
2018-10-05T23:06:20.849Z,10.10
2018-10-05T23:08:47.380Z,10.40
2018-10-05T23:11:13.942Z,10.40
2018-10-05T23:13:40.505Z,10.10
2018-10-05T23:16:07.297Z,9.90
2018-10-05T23:18:33.883Z,10.10
2018-10-05T23:21:01.487Z,9.80
2018-10-05T23:23:27.951Z,9.90
2018-10-05T23:25:54.449Z,10.10
2018-10-05T23:30:53.051Z,10.20
2018-10-05T23:33:19.680Z,10.20
2018-10-05T23:35:46.190Z,10.50
2018-10-05T23:38:12.655Z,10.50
2018-10-05T23:40:39.232Z,10.60
2018-10-05T23:43:05.696Z,10.30
2018-10-05T23:45:32.305Z,10.00
2018-10-05T23:47:58.813Z,9.80
2018-10-05T23:50:26.213Z,9.80
2018-10-05T23:52:52.737Z,10.00
2018-10-05T23:55:19.493Z,10.00
2018-10-05T23:57:45.956Z,10.00
